Date,TemperatureHighF,TemperatureAvgF,TemperatureLowF,DewpointHighF,DewpointAvgF,DewpointLowF,HumidityHigh,HumidityAvg,HumidityLow,PressureMaxIn,PressureMinIn,WindSpeedMaxMPH,WindSpeedAvgMPH,GustSpeedMaxMPH,PrecipitationSumIn
2014-2-1,68.8,58.2,47.4,61.2,52.3,44.1,90,81,68,30.02,29.92,8,2,17,0.00
2014-2-2,66.1,62.9,48.6,62.0,59.3,46.1,93,88,81,30.02,29.93,6,2,12,0.09
2014-2-3,36.0,34.6,34.0,32.5,31.8,31.1,93,89,87,30.21,30.16,3,2,9,0.00
2014-2-4,39.7,36.7,34.2,38.4,35.2,32.4,95,94,92,30.16,29.88,4,1,6,1.16
2014-2-5,39.1,36.5,32.0,37.2,31.4,24.3,95,82,70,30.48,30.09,10,1,10,0.00
2014-2-6,32.3,30.2,27.0,25.2,23.2,20.7,79,75,69,30.57,30.43,9,2,9,0.00
2014-2-7,39.2,31.7,26.9,30.2,25.5,20.8,92,78,60,30.47,30.29,10,1,10,0.15
2014-2-8,49.0,39.2,32.0,43.0,36.1,29.9,94,89,75,30.32,30.13,5,0,6,0.03
2014-2-9,49.7,43.6,37.3,45.3,40.6,35.7,95,89,82,30.21,30.09,7,1,7,0.00
2014-2-10,39.9,35.3,31.5,37.2,31.8,26.0,92,87,78,30.28,30.15,11,2,11,0.04
2014-2-11,33.3,31.2,29.6,29.6,26.1,23.0,92,82,68,30.35,30.17,10,2,10,0.28
2014-2-12,33.0,30.7,28.1,31.5,28.7,25.5,94,92,90,30.20,30.05,6,0,6,0.00
2014-2-13,54.9,37.9,25.8,40.5,32.6,24.1,95,83,49,30.11,29.96,10,-3,10,0.10
2014-2-14,68.7,49.8,33.1,52.0,39.9,27.9,95,72,36,30.06,29.77,17,2,17,0.00
2014-2-15,55.9,43.3,33.0,35.5,30.4,24.6,86,62,32,30.28,30.06,11,1,11,0.00
2014-2-16,69.8,52.5,35.2,52.5,42.2,32.3,92,71,42,30.17,30.04,9,1,9,0.00
2014-2-17,76.3,64.7,55.3,60.5,56.9,50.4,90,77,52,30.12,30.00,10,2,13,0.00
2014-2-18,74.7,61.7,48.5,62.4,54.5,44.6,92,78,60,30.12,29.95,14,2,14,0.00
2014-2-19,75.2,66.9,57.4,62.1,59.6,55.3,94,78,58,30.04,29.85,12,2,12,0.00
2014-2-20,77.8,67.0,51.6,64.2,58.3,34.4,93,75,50,30.09,29.75,28,4,28,0.11
2014-2-21,64.0,49.1,35.8,38.9,28.9,12.0,93,54,14,30.20,30.08,10,1,10,0.00
2014-2-22,69.6,54.0,37.0,40.0,32.5,23.7,90,51,19,30.14,29.95,14,2,14,0.00
2014-2-23,73.5,60.9,47.9,60.7,49.7,36.8,83,67,58,30.12,29.94,12,1,12,0.00
2014-2-24,57.6,51.2,43.7,42.3,39.0,34.6,73,63,51,30.22,30.10,10,1,10,0.00
2014-2-25,56.4,51.9,44.2,44.7,40.8,33.8,85,66,56,30.19,30.02,10,1,10,0.13
2014-2-26,43.8,37.5,27.6,40.1,28.2,21.1,90,70,47,30.23,30.04,14,2,14,0.08
2014-2-27,54.3,36.8,24.2,27.0,19.6,7.0,92,58,17,30.21,30.03,9,1,9,0.00
2014-2-28,56.5,47.1,32.2,50.8,35.5,22.0,83,65,39,30.05,29.90,14,2,14,0.00